createdAt,value
2018-08-14T00:00:49.859Z,3.72
2018-08-14T00:03:19.151Z,3.90
2018-08-14T00:05:48.979Z,4.35
2018-08-14T00:08:18.232Z,3.87
2018-08-14T00:10:47.113Z,3.87
2018-08-14T00:13:16.578Z,4.08
2018-08-14T00:15:46.848Z,3.70
2018-08-14T00:18:15.639Z,4.10
2018-08-14T00:20:44.618Z,3.65
2018-08-14T00:23:13.326Z,4.47
2018-08-14T00:25:42.581Z,4.15
2018-08-14T00:28:12.264Z,4.08
2018-08-14T00:30:41.629Z,3.90
2018-08-14T00:33:10.446Z,4.28
2018-08-14T00:35:39.145Z,4.65
2018-08-14T00:38:11.117Z,4.50
2018-08-14T00:40:39.991Z,4.28
2018-08-14T00:43:10.119Z,6.27
2018-08-14T00:45:39.051Z,4.60
2018-08-14T00:48:08.378Z,4.53
2018-08-14T00:50:38.053Z,5.25
2018-08-14T00:53:06.810Z,4.85
2018-08-14T00:55:35.758Z,5.03
2018-08-14T00:58:04.741Z,5.42
2018-08-14T01:00:34.634Z,5.65
2018-08-14T01:03:03.694Z,5.27
2018-08-14T01:05:32.775Z,4.90
2018-08-14T01:08:01.543Z,4.87
2018-08-14T01:10:30.372Z,4.53
2018-08-14T01:12:59.506Z,5.03
2018-08-14T01:15:30.575Z,5.83
2018-08-14T01:17:59.485Z,5.22
2018-08-14T01:20:30.229Z,4.75
2018-08-14T01:22:59.094Z,5.05
2018-08-14T01:25:30.653Z,4.62
2018-08-14T01:27:59.519Z,4.90
2018-08-14T01:30:29.610Z,5.58
2018-08-14T01:32:58.704Z,5.67
2018-08-14T01:35:27.860Z,5.40
2018-08-14T01:37:56.606Z,5.45
2018-08-14T01:40:28.007Z,5.33
2018-08-14T01:42:56.803Z,5.17
2018-08-14T01:45:25.600Z,6.28
2018-08-14T01:47:54.455Z,5.53
2018-08-14T01:51:52.589Z,5.10
2018-08-14T01:54:22.581Z,5.30
2018-08-14T01:56:51.371Z,5.25
2018-08-14T01:59:20.160Z,6.33
2018-08-14T02:01:48.911Z,5.70
2018-08-14T02:04:17.820Z,5.70
2018-08-14T02:06:46.560Z,5.17
2018-08-14T02:09:15.338Z,5.95
2018-08-14T02:11:44.132Z,6.70
2018-08-14T02:14:13.132Z,6.35
2018-08-14T02:16:41.856Z,6.87
2018-08-14T02:19:16.610Z,6.00
2018-08-14T02:21:45.414Z,7.33
2018-08-14T02:24:14.186Z,6.58
2018-08-14T02:26:45.368Z,5.33
2018-08-14T02:29:14.284Z,4.87
2018-08-14T02:31:43.240Z,4.42
2018-08-14T02:34:12.127Z,4.87
2018-08-14T02:36:40.859Z,4.45
2018-08-14T02:39:11.403Z,4.00
2018-08-14T02:41:40.319Z,3.90
2018-08-14T02:44:09.079Z,4.40
2018-08-14T02:46:38.304Z,5.03
2018-08-14T02:49:09.668Z,5.92
2018-08-14T02:51:38.531Z,5.95
2018-08-14T02:54:07.388Z,7.72
2018-08-14T02:56:36.331Z,6.30
2018-08-14T02:59:05.183Z,5.95
2018-08-14T03:01:34.016Z,6.00
2018-08-14T03:04:02.756Z,6.25
2018-08-14T03:06:31.557Z,6.10
2018-08-14T03:09:00.328Z,5.10
2018-08-14T03:11:29.128Z,4.92
2018-08-14T03:13:57.756Z,4.63
2018-08-14T03:16:26.496Z,4.60
2018-08-14T03:18:55.222Z,4.90
2018-08-14T03:21:24.088Z,5.97
2018-08-14T03:23:53.180Z,5.70
2018-08-14T03:26:21.881Z,6.12
2018-08-14T03:28:50.646Z,7.00
2018-08-14T03:31:19.559Z,6.87
2018-08-14T03:33:48.357Z,6.60
2018-08-14T03:36:17.165Z,6.50
2018-08-14T03:38:45.865Z,7.05
2018-08-14T03:41:14.865Z,7.83
2018-08-14T03:43:43.624Z,7.85
2018-08-14T03:46:12.380Z,8.90
2018-08-14T03:48:41.431Z,9.48
2018-08-14T03:51:10.286Z,12.37
2018-08-14T03:53:39.603Z,12.10
2018-08-14T03:56:08.354Z,13.68
2018-08-14T03:58:37.118Z,12.45
2018-08-14T04:01:06.164Z,13.75
2018-08-14T04:03:34.885Z,14.23
2018-08-14T04:06:03.716Z,14.53
2018-08-14T04:08:33.035Z,14.75
2018-08-14T04:11:01.878Z,16.25
2018-08-14T04:13:30.528Z,15.70
2018-08-14T04:15:59.383Z,17.17
2018-08-14T04:18:28.785Z,15.68
2018-08-14T04:20:57.790Z,15.10
2018-08-14T04:23:28.319Z,15.43
2018-08-14T04:25:57.205Z,15.67
2018-08-14T04:28:25.915Z,15.43
2018-08-14T04:30:54.874Z,16.32
2018-08-14T04:33:23.737Z,15.50
2018-08-14T04:35:52.430Z,15.30
2018-08-14T04:38:21.187Z,13.25
2018-08-14T04:40:49.922Z,12.80
2018-08-14T04:43:18.695Z,12.03
2018-08-14T04:45:49.326Z,13.40
2018-08-14T04:48:18.031Z,12.03
2018-08-14T04:50:46.694Z,11.78
2018-08-14T04:53:15.419Z,12.15
2018-08-14T04:55:44.078Z,12.00
2018-08-14T04:58:12.812Z,12.35
2018-08-14T05:00:41.583Z,12.65
2018-08-14T05:03:10.400Z,13.85
2018-08-14T05:05:39.201Z,12.47
2018-08-14T05:08:08.050Z,12.60
2018-08-14T05:10:36.778Z,11.93
2018-08-14T05:13:05.574Z,12.33
2018-08-14T05:15:34.397Z,12.40
2018-08-14T05:18:03.165Z,12.20
2018-08-14T05:20:31.847Z,13.28
2018-08-14T05:23:00.682Z,13.18
2018-08-14T05:25:33.427Z,13.10
2018-08-14T05:28:02.370Z,12.68
2018-08-14T05:30:31.116Z,12.65
2018-08-14T05:33:00.194Z,12.70
2018-08-14T05:35:28.956Z,12.40
2018-08-14T05:37:58.022Z,13.23
2018-08-14T05:40:26.914Z,14.60
2018-08-14T05:42:55.618Z,16.25
2018-08-14T05:45:24.450Z,15.50
2018-08-14T05:47:53.416Z,15.77
2018-08-14T05:50:22.287Z,14.98
2018-08-14T05:52:51.041Z,14.68
2018-08-14T05:55:19.857Z,14.50
2018-08-14T05:57:48.779Z,15.53
2018-08-14T06:00:19.054Z,15.23
2018-08-14T06:02:47.859Z,16.10
2018-08-14T06:05:16.981Z,15.68
2018-08-14T06:07:45.858Z,13.72
2018-08-14T06:10:14.932Z,14.40
2018-08-14T06:12:43.637Z,15.03
2018-08-14T06:15:13.640Z,17.30
2018-08-14T06:17:42.533Z,11.55
2018-08-14T06:20:12.946Z,14.13
2018-08-14T06:22:45.022Z,19.87
2018-08-14T06:25:18.795Z,17.67
2018-08-14T06:27:54.212Z,20.07
2018-08-14T06:30:23.445Z,13.28
2018-08-14T06:32:52.347Z,11.50
2018-08-14T06:35:21.294Z,12.47
2018-08-14T06:37:50.597Z,12.23
2018-08-14T06:40:19.303Z,12.35
2018-08-14T06:42:48.077Z,12.60
2018-08-14T06:45:20.256Z,16.23
2018-08-14T06:47:49.123Z,11.20
2018-08-14T06:50:20.443Z,11.10
2018-08-14T06:52:49.291Z,9.98
2018-08-14T06:55:18.076Z,10.38
2018-08-14T06:57:47.299Z,10.43
2018-08-14T07:00:17.656Z,10.28
2018-08-14T07:02:47.004Z,10.68
2018-08-14T07:05:15.757Z,9.20
2018-08-14T07:07:44.524Z,9.40
2018-08-14T07:10:13.243Z,9.20
2018-08-14T07:12:41.915Z,10.50
2018-08-14T07:15:13.494Z,9.55
2018-08-14T07:17:42.380Z,9.23
2018-08-14T07:20:14.508Z,9.23
2018-08-14T07:22:44.071Z,9.18
2018-08-14T07:25:14.091Z,8.78
2018-08-14T07:27:42.960Z,10.30
2018-08-14T07:30:17.314Z,8.33
2018-08-14T07:32:46.647Z,9.13
2018-08-14T07:35:15.537Z,9.78
2018-08-14T07:37:44.497Z,9.90
2018-08-14T07:40:13.400Z,10.23
2018-08-14T07:42:42.071Z,10.82
2018-08-14T07:45:16.041Z,11.35
2018-08-14T07:47:44.950Z,9.45
2018-08-14T07:50:14.268Z,9.30
2018-08-14T07:52:43.910Z,10.75
2018-08-14T07:55:13.176Z,10.60
2018-08-14T07:57:42.380Z,10.53
2018-08-14T08:00:16.342Z,10.10
2018-08-14T08:02:46.286Z,9.85
2018-08-14T08:05:15.026Z,10.18
2018-08-14T08:07:47.782Z,10.03
2018-08-14T08:10:18.518Z,11.10
2018-08-14T08:12:47.618Z,10.23
2018-08-14T08:15:17.568Z,11.43
2018-08-14T08:17:46.852Z,10.43
2018-08-14T08:20:23.137Z,10.55
2018-08-14T08:22:52.655Z,10.72
2018-08-14T08:25:21.517Z,12.47
2018-08-14T08:27:50.393Z,12.85
2018-08-14T08:30:19.374Z,12.03
2018-08-14T08:32:48.134Z,12.20
2018-08-14T08:35:18.947Z,11.88
2018-08-14T08:37:47.741Z,12.87
2018-08-14T08:40:19.030Z,13.68
2018-08-14T08:42:47.842Z,16.20
2018-08-14T08:45:16.591Z,16.20
2018-08-14T08:47:45.347Z,19.80
2018-08-14T08:50:15.056Z,18.20
2018-08-14T08:52:44.451Z,24.90
2018-08-14T08:55:15.089Z,17.40
2018-08-14T08:57:45.403Z,19.87
2018-08-14T09:00:15.724Z,19.30
2018-08-14T09:02:44.879Z,17.40
2018-08-14T09:05:15.799Z,18.23
2018-08-14T09:07:44.769Z,16.48
2018-08-14T09:10:14.158Z,17.27
2018-08-14T09:12:43.999Z,18.02
2018-08-14T09:15:18.027Z,17.73
2018-08-14T09:17:51.299Z,17.25
2018-08-14T09:20:20.564Z,20.35
2018-08-14T09:22:49.450Z,19.00
2018-08-14T09:25:18.310Z,19.48
2018-08-14T09:27:47.164Z,18.82
2018-08-14T09:30:17.093Z,19.20
2018-08-14T09:32:45.943Z,17.50
2018-08-14T09:35:17.272Z,18.40
2018-08-14T09:37:46.297Z,20.45
2018-08-14T09:40:18.809Z,17.90
2018-08-14T09:42:49.498Z,17.80
2018-08-14T09:45:18.335Z,19.48
2018-08-14T09:47:47.093Z,18.73
2018-08-14T09:50:17.764Z,16.40
2018-08-14T09:52:47.662Z,16.32
2018-08-14T09:55:17.460Z,14.45
2018-08-14T09:57:46.869Z,12.70
2018-08-14T10:00:30.599Z,13.28
2018-08-14T10:03:04.967Z,12.10
2018-08-14T10:05:39.002Z,12.70
2018-08-14T10:08:17.150Z,12.05
2018-08-14T10:10:51.346Z,12.15
2018-08-14T10:13:26.628Z,13.40
2018-08-14T10:15:55.613Z,12.07
2018-08-14T10:18:25.379Z,11.50
2018-08-14T10:20:54.253Z,11.70
2018-08-14T10:23:23.454Z,10.90
2018-08-14T10:25:52.413Z,10.03
2018-08-14T10:28:23.035Z,9.25
2018-08-14T10:30:51.998Z,7.87
2018-08-14T10:33:20.907Z,7.87
2018-08-14T10:35:49.627Z,7.78
2018-08-14T10:38:18.379Z,7.50
2018-08-14T10:40:51.520Z,7.35
2018-08-14T10:43:25.233Z,5.58
2018-08-14T10:45:54.347Z,4.90
2018-08-14T10:48:23.087Z,4.62
2018-08-14T10:50:51.960Z,4.87
2018-08-14T10:53:20.783Z,4.67
2018-08-14T10:55:49.714Z,4.92
2018-08-14T10:58:18.479Z,5.08
2018-08-14T11:00:47.613Z,4.37
2018-08-14T11:03:16.457Z,4.40
2018-08-14T11:05:45.376Z,4.37
2018-08-14T11:08:14.173Z,3.52
2018-08-14T11:10:48.130Z,3.45
2018-08-14T11:13:17.000Z,3.17
2018-08-14T11:15:45.830Z,2.15
2018-08-14T11:18:14.585Z,4.77
2018-08-14T11:20:43.329Z,3.52
2018-08-14T11:23:12.194Z,2.37
2018-08-14T11:25:41.058Z,3.60
2018-08-14T11:28:09.873Z,2.08
2018-08-14T11:30:38.567Z,1.93
2018-08-14T11:33:07.798Z,2.67
2018-08-14T11:35:41.835Z,2.15
2018-08-14T11:38:10.810Z,2.65
2018-08-14T11:40:39.810Z,2.37
2018-08-14T11:43:08.690Z,3.23
2018-08-14T11:45:43.532Z,3.90
2018-08-14T11:48:18.158Z,2.67
2018-08-14T11:50:47.121Z,1.82
2018-08-14T11:53:15.864Z,1.60
2018-08-14T11:55:44.728Z,1.93
2018-08-14T11:58:13.676Z,1.92
2018-08-14T12:00:42.717Z,2.87
2018-08-14T12:03:11.509Z,2.80
2018-08-14T12:05:40.283Z,2.60
2018-08-14T12:08:09.113Z,2.30
2018-08-14T12:10:38.704Z,2.73
2018-08-14T12:13:07.627Z,2.70
2018-08-14T12:15:36.522Z,3.70
2018-08-14T12:18:05.665Z,3.53
2018-08-14T12:20:34.467Z,2.70
2018-08-14T12:23:03.352Z,3.13
2018-08-14T12:25:32.126Z,5.70
2018-08-14T12:28:00.958Z,3.25
2018-08-14T12:30:29.837Z,2.10
2018-08-14T12:32:58.693Z,2.83
2018-08-14T12:35:27.598Z,1.90
2018-08-14T12:37:57.391Z,1.98
2018-08-14T12:40:26.276Z,2.30
2018-08-14T12:42:55.014Z,1.98
2018-08-14T12:45:24.070Z,2.20
2018-08-14T12:47:53.334Z,2.10
2018-08-14T12:50:22.787Z,2.33
2018-08-14T12:52:51.607Z,3.30
2018-08-14T12:55:20.386Z,2.47
2018-08-14T12:57:49.410Z,3.87
2018-08-14T13:00:24.736Z,1.98
2018-08-14T13:02:54.034Z,1.60
2018-08-14T13:05:27.684Z,2.27
2018-08-14T13:08:01.217Z,2.00
2018-08-14T13:10:30.217Z,1.80
2018-08-14T13:12:58.993Z,2.70
2018-08-14T13:15:27.834Z,4.75
2018-08-14T13:18:16.515Z,1.77
2018-08-14T13:20:45.758Z,2.33
2018-08-14T13:23:15.588Z,4.20
2018-08-14T13:25:44.349Z,2.47
2018-08-14T13:28:13.618Z,1.50
2018-08-14T13:30:42.631Z,4.78
2018-08-14T13:33:11.549Z,1.45
2018-08-14T13:35:40.343Z,4.50
2018-08-14T13:38:09.206Z,2.35
2018-08-14T13:40:38.106Z,2.45
2018-08-14T13:43:07.062Z,2.95
2018-08-14T13:45:35.928Z,2.47
2018-08-14T13:48:04.804Z,2.52
2018-08-14T13:50:34.721Z,1.60
2018-08-14T13:53:03.550Z,1.82
2018-08-14T13:55:32.359Z,1.97
2018-08-14T13:58:01.217Z,2.35
2018-08-14T14:00:30.283Z,2.33
2018-08-14T14:02:59.112Z,1.40
2018-08-14T14:05:30.306Z,1.72
2018-08-14T14:07:59.137Z,2.55
2018-08-14T14:11:47.428Z,1.60
2018-08-14T14:14:16.191Z,1.70
2018-08-14T14:16:45.039Z,3.02
2018-08-14T14:19:15.560Z,2.58
2018-08-14T14:21:44.258Z,2.05
2018-08-14T14:24:13.074Z,1.98
2018-08-14T14:26:41.774Z,2.85
2018-08-14T14:29:10.810Z,2.20
2018-08-14T14:31:39.561Z,2.80
2018-08-14T14:34:09.601Z,3.50
2018-08-14T14:36:38.358Z,1.92
2018-08-14T14:39:10.019Z,3.08
2018-08-14T14:41:41.765Z,2.58
2018-08-14T14:44:10.862Z,2.20
2018-08-14T14:46:39.761Z,2.90
2018-08-14T14:49:08.586Z,3.43
2018-08-14T14:51:37.387Z,1.95
2018-08-14T14:54:06.577Z,2.23
2018-08-14T14:56:35.453Z,3.65
2018-08-14T14:59:04.378Z,3.55
2018-08-14T15:01:33.979Z,2.00
2018-08-14T15:04:04.949Z,3.97
2018-08-14T15:06:33.687Z,2.98
2018-08-14T15:09:02.532Z,2.50
2018-08-14T15:11:31.252Z,3.10
2018-08-14T15:14:00.253Z,3.40
2018-08-14T15:16:29.138Z,2.02
2018-08-14T15:19:08.740Z,1.90
2018-08-14T15:21:37.535Z,1.57
2018-08-14T15:24:09.514Z,1.47
2018-08-14T15:26:38.502Z,1.47
2018-08-14T15:29:12.623Z,2.05
2018-08-14T15:31:43.350Z,2.05
2018-08-14T15:34:13.259Z,2.40
2018-08-14T15:36:42.894Z,1.40
2018-08-14T15:39:12.794Z,1.67
2018-08-14T15:41:43.696Z,3.33
2018-08-14T15:44:12.983Z,2.13
2018-08-14T15:46:41.872Z,2.20
2018-08-14T15:49:11.131Z,10.98
2018-08-14T15:51:40.826Z,4.08
2018-08-14T15:54:10.263Z,9.35
2018-08-14T15:56:39.749Z,11.68
2018-08-14T15:59:08.936Z,2.70
2018-08-14T16:01:39.380Z,2.72
2018-08-14T16:04:12.046Z,4.47
2018-08-14T16:06:41.273Z,1.77
2018-08-14T16:09:14.780Z,1.70
2018-08-14T16:11:44.094Z,2.10
2018-08-14T16:14:13.161Z,2.13
2018-08-14T16:16:42.106Z,5.22
2018-08-14T16:19:12.041Z,3.08
2018-08-14T16:21:41.115Z,1.93
2018-08-14T16:24:10.315Z,1.85
2018-08-14T16:26:39.046Z,1.72
2018-08-14T16:29:08.032Z,3.53
2018-08-14T16:31:36.849Z,3.12
2018-08-14T16:34:05.980Z,1.75
2018-08-14T16:36:34.695Z,3.97
2018-08-14T16:39:04.729Z,1.85
2018-08-14T16:41:38.186Z,3.37
2018-08-14T16:44:12.194Z,2.77
2018-08-14T16:46:42.553Z,1.95
2018-08-14T16:49:11.302Z,1.97
2018-08-14T16:51:40.050Z,1.70
2018-08-14T16:54:09.303Z,5.03
2018-08-14T16:56:38.011Z,9.40
2018-08-14T16:59:06.766Z,2.17
2018-08-14T17:01:35.566Z,8.68
2018-08-14T17:04:04.355Z,4.90
2018-08-14T17:06:33.054Z,6.12
2018-08-14T17:09:01.760Z,4.08
2018-08-14T17:11:30.483Z,1.52
2018-08-14T17:13:59.188Z,3.67
2018-08-14T17:16:27.882Z,3.40
2018-08-14T17:18:56.631Z,2.95
2018-08-14T17:21:24.054Z,4.12
2018-08-14T17:23:52.786Z,3.42
2018-08-14T17:26:21.506Z,1.60
2018-08-14T17:28:50.363Z,3.05
2018-08-14T17:31:19.031Z,2.10
2018-08-14T17:33:47.696Z,2.35
2018-08-14T17:36:16.453Z,2.90
2018-08-14T17:38:45.288Z,3.60
2018-08-14T17:41:14.093Z,3.83
2018-08-14T17:43:42.857Z,2.53
2018-08-14T17:46:11.591Z,3.77
2018-08-14T17:48:40.479Z,3.40
2018-08-14T17:51:09.158Z,3.30
2018-08-14T17:53:38.035Z,4.13
2018-08-14T17:56:06.741Z,3.37
2018-08-14T17:58:35.399Z,2.60
2018-08-14T18:01:04.250Z,3.50
2018-08-14T18:03:32.934Z,3.27
2018-08-14T18:06:01.700Z,3.75
2018-08-14T18:08:30.476Z,4.80
2018-08-14T18:10:59.188Z,3.92
2018-08-14T18:13:27.908Z,1.60
2018-08-14T18:15:56.566Z,4.92
2018-08-14T18:18:25.409Z,3.17
2018-08-14T18:20:54.517Z,4.33
2018-08-14T18:23:23.590Z,3.02
2018-08-14T18:25:52.411Z,1.95
2018-08-14T18:28:21.814Z,2.25
2018-08-14T18:30:50.523Z,4.90
2018-08-14T18:33:19.429Z,4.03
2018-08-14T18:35:47.986Z,5.00
2018-08-14T18:38:16.613Z,7.83
2018-08-14T18:40:45.390Z,2.67
2018-08-14T18:43:14.118Z,7.75
2018-08-14T18:45:43.094Z,4.58
2018-08-14T18:48:11.802Z,4.78
2018-08-14T18:50:41.999Z,3.90
2018-08-14T18:53:10.888Z,2.47
2018-08-14T18:55:39.777Z,2.87
2018-08-14T18:58:08.548Z,3.85
2018-08-14T19:00:37.214Z,2.70
2018-08-14T19:03:06.023Z,3.35
2018-08-14T19:05:34.768Z,6.23
2018-08-14T19:08:03.400Z,3.33
2018-08-14T19:10:32.282Z,2.90
2018-08-14T19:13:00.971Z,6.03
2018-08-14T19:15:35.644Z,3.00
2018-08-14T19:18:05.000Z,2.40
2018-08-14T19:20:35.393Z,2.83
2018-08-14T19:23:06.499Z,9.93
2018-08-14T19:25:35.256Z,8.93
2018-08-14T19:28:04.575Z,3.55
2018-08-14T19:30:33.711Z,2.22
2018-08-14T19:33:02.488Z,4.05
2018-08-14T19:35:31.187Z,4.10
2018-08-14T19:38:00.050Z,2.27
2018-08-14T19:40:30.769Z,3.03
2018-08-14T19:42:59.751Z,2.67
2018-08-14T19:45:28.458Z,2.47
2018-08-14T19:47:58.292Z,4.55
2018-08-14T19:50:28.017Z,6.42
2018-08-14T19:52:56.857Z,4.40
2018-08-14T19:55:25.523Z,6.87
2018-08-14T19:57:54.370Z,2.75
2018-08-14T20:00:25.228Z,8.00
2018-08-14T20:02:54.599Z,6.45
2018-08-14T20:05:23.713Z,3.70
2018-08-14T20:07:52.954Z,5.50
2018-08-14T20:10:21.768Z,4.95
2018-08-14T20:12:50.619Z,3.30
2018-08-14T20:15:24.678Z,4.97
2018-08-14T20:17:53.702Z,3.87
2018-08-14T20:20:22.463Z,4.12
2018-08-14T20:22:51.468Z,4.55
2018-08-14T20:25:20.283Z,2.80
2018-08-14T20:27:49.061Z,3.57
2018-08-14T20:30:18.826Z,4.03
2018-08-14T20:32:47.699Z,4.12
2018-08-14T20:35:17.509Z,5.05
2018-08-14T20:37:47.178Z,3.10
2018-08-14T20:40:18.438Z,2.80
2018-08-14T20:42:48.442Z,2.60
2018-08-14T20:45:17.176Z,3.40
2018-08-14T20:47:46.060Z,2.87
2018-08-14T20:50:19.695Z,2.60
2018-08-14T20:52:49.145Z,3.47
2018-08-14T20:55:20.376Z,3.52
2018-08-14T20:57:50.670Z,3.67
2018-08-14T21:00:23.113Z,2.90
2018-08-14T21:02:52.772Z,2.95
2018-08-14T21:05:25.295Z,2.30
2018-08-14T21:07:56.211Z,3.15
2018-08-14T21:10:24.923Z,3.12
2018-08-14T21:12:53.686Z,3.80
2018-08-14T21:15:27.522Z,2.42
2018-08-14T21:17:56.680Z,3.03
2018-08-14T21:20:25.748Z,4.47
2018-08-14T21:22:54.395Z,3.00
2018-08-14T21:25:23.308Z,4.67
2018-08-14T21:27:52.187Z,3.22
2018-08-14T21:30:20.993Z,3.12
2018-08-14T21:32:49.752Z,3.60
2018-08-14T21:35:19.791Z,3.20
2018-08-14T21:37:48.692Z,4.90
2018-08-14T21:40:20.279Z,2.60
2018-08-14T21:42:50.126Z,3.20
2018-08-14T21:45:20.215Z,3.40
2018-08-14T21:47:49.029Z,3.33
2018-08-14T21:50:17.811Z,3.90
2018-08-14T21:52:46.548Z,3.00
2018-08-14T21:55:15.879Z,3.40
2018-08-14T21:57:45.183Z,3.17
2018-08-14T22:00:17.418Z,3.97
2018-08-14T22:02:46.366Z,2.73
2018-08-14T22:05:15.857Z,3.33
2018-08-14T22:07:45.110Z,2.50
2018-08-14T22:10:15.537Z,2.33
2018-08-14T22:12:44.382Z,2.47
2018-08-14T22:15:13.240Z,3.50
2018-08-14T22:17:41.868Z,2.87
2018-08-14T22:20:12.548Z,2.40
2018-08-14T22:22:41.851Z,3.80
2018-08-14T22:25:10.614Z,4.25
2018-08-14T22:27:39.446Z,2.70
2018-08-14T22:30:10.415Z,2.25
2018-08-14T22:32:39.163Z,2.52
2018-08-14T22:35:09.114Z,3.50
2018-08-14T22:37:38.024Z,2.47
2018-08-14T22:40:06.906Z,2.58
2018-08-14T22:42:35.729Z,2.77
2018-08-14T22:45:05.291Z,3.00
2018-08-14T22:47:34.099Z,3.10
2018-08-14T22:50:02.792Z,2.72
2018-08-14T22:52:31.471Z,2.20
2018-08-14T22:55:00.304Z,2.70
2018-08-14T22:57:29.815Z,4.45
2018-08-14T22:59:58.876Z,3.47
2018-08-14T23:02:30.142Z,2.83
2018-08-14T23:05:01.339Z,3.83
2018-08-14T23:07:31.373Z,3.58
2018-08-14T23:10:00.091Z,2.50
2018-08-14T23:12:28.796Z,2.67
2018-08-14T23:14:58.326Z,3.42
2018-08-14T23:17:27.028Z,2.73
2018-08-14T23:19:55.767Z,2.37
2018-08-14T23:22:24.532Z,3.72
2018-08-14T23:24:53.367Z,3.27
2018-08-14T23:27:22.072Z,2.95
2018-08-14T23:29:51.736Z,3.47
2018-08-14T23:32:20.459Z,2.55
2018-08-14T23:34:49.163Z,2.43
2018-08-14T23:37:18.186Z,3.37
2018-08-14T23:39:46.897Z,3.95
2018-08-14T23:42:15.717Z,3.50
2018-08-14T23:44:44.533Z,2.40
2018-08-14T23:47:13.214Z,2.90
2018-08-14T23:49:41.955Z,3.02
2018-08-14T23:52:10.748Z,3.00
2018-08-14T23:54:39.420Z,3.53
2018-08-14T23:57:08.071Z,2.70
2018-08-14T23:59:36.893Z,3.10
